createdAt,value
2023-05-22T00:01:51.888Z,99.90
2023-05-22T00:04:22.028Z,99.90
2023-05-22T00:06:49.188Z,99.90
2023-05-22T00:09:16.189Z,99.90
2023-05-22T00:11:43.160Z,99.90
2023-05-22T00:14:10.321Z,99.90
2023-05-22T00:16:37.159Z,99.90
2023-05-22T00:19:04.466Z,99.90
2023-05-22T00:21:35.074Z,99.90
2023-05-22T00:24:02.320Z,99.90
2023-05-22T00:26:29.097Z,99.90
2023-05-22T00:28:55.901Z,99.90
2023-05-22T00:31:23.243Z,99.90
2023-05-22T00:33:50.191Z,99.90
2023-05-22T00:36:18.648Z,99.90
2023-05-22T00:38:46.389Z,99.90
2023-05-22T00:41:13.414Z,99.90
2023-05-22T00:43:40.366Z,99.90
2023-05-22T00:46:07.835Z,99.90
2023-05-22T00:48:34.681Z,99.90
2023-05-22T00:51:01.855Z,99.90
2023-05-22T00:53:29.955Z,99.90
2023-05-22T00:55:58.521Z,99.90
2023-05-22T00:58:27.069Z,99.90
2023-05-22T01:00:55.445Z,99.90
2023-05-22T01:03:26.882Z,99.90
2023-05-22T01:05:54.898Z,99.90
2023-05-22T01:08:21.933Z,99.90
2023-05-22T01:10:54.376Z,99.90
2023-05-22T01:13:53.830Z,99.90
2023-05-22T01:16:37.372Z,99.90
2023-05-22T01:19:32.019Z,99.90
2023-05-22T01:22:36.250Z,99.90
2023-05-22T01:25:26.592Z,99.90
2023-05-22T01:28:06.857Z,99.90
2023-05-22T01:30:42.732Z,99.90
2023-05-22T01:33:13.063Z,99.90
2023-05-22T01:35:41.679Z,99.90
2023-05-22T01:38:09.040Z,99.90
2023-05-22T01:40:36.495Z,99.90
2023-05-22T01:43:03.498Z,99.90
2023-05-22T01:45:31.768Z,99.90
2023-05-22T01:47:59.010Z,99.90
2023-05-22T01:50:26.626Z,99.90
2023-05-22T01:53:28.315Z,99.90
2023-05-22T01:56:07.702Z,99.90
2023-05-22T01:58:52.787Z,99.90
2023-05-22T02:01:21.271Z,99.90
2023-05-22T02:03:51.837Z,99.90
2023-05-22T02:06:20.068Z,99.90
2023-05-22T02:08:47.426Z,99.90
2023-05-22T02:11:16.683Z,99.90
2023-05-22T02:13:43.553Z,99.90
2023-05-22T02:16:12.297Z,99.90
2023-05-22T02:18:41.825Z,99.90
2023-05-22T02:21:08.744Z,99.90
2023-05-22T02:23:35.829Z,99.90
2023-05-22T02:26:02.665Z,99.90
2023-05-22T02:28:29.395Z,99.90
2023-05-22T02:30:56.247Z,99.90
2023-05-22T02:33:23.055Z,99.90
2023-05-22T02:35:49.932Z,99.90
2023-05-22T02:38:16.626Z,99.90
2023-05-22T02:40:43.346Z,99.90
2023-05-22T02:43:10.084Z,99.90
2023-05-22T02:45:36.958Z,99.90
2023-05-22T02:48:04.013Z,99.90
2023-05-22T02:50:30.776Z,99.90
2023-05-22T02:52:57.638Z,99.90
2023-05-22T02:55:24.488Z,99.90
2023-05-22T02:57:51.209Z,99.90
2023-05-22T03:00:18.504Z,99.90
2023-05-22T03:02:45.354Z,99.90
2023-05-22T03:05:17.426Z,99.90
2023-05-22T03:07:46.736Z,99.90
2023-05-22T03:10:15.250Z,99.90
2023-05-22T03:12:41.965Z,99.90
2023-05-22T03:15:09.385Z,99.90
2023-05-22T03:17:36.209Z,99.90
2023-05-22T03:20:04.748Z,99.90
2023-05-22T03:22:31.452Z,99.90
2023-05-22T03:24:58.250Z,99.90
2023-05-22T03:27:25.003Z,99.90
2023-05-22T03:29:51.818Z,99.90
2023-05-22T03:32:18.549Z,99.90
2023-05-22T03:34:45.349Z,99.90
2023-05-22T03:37:12.076Z,99.90
2023-05-22T03:39:39.686Z,99.90
2023-05-22T03:42:06.800Z,99.90
2023-05-22T03:44:33.555Z,99.90
2023-05-22T03:47:00.322Z,99.90
2023-05-22T03:49:27.091Z,99.90
2023-05-22T03:51:53.841Z,99.90
2023-05-22T03:54:21.063Z,99.90
2023-05-22T03:56:47.865Z,99.90
2023-05-22T03:59:14.614Z,99.90
2023-05-22T04:01:41.316Z,99.90
2023-05-22T04:04:09.568Z,99.90
2023-05-22T04:06:43.096Z,99.90
2023-05-22T04:09:11.910Z,99.90
2023-05-22T04:11:42.420Z,99.90
2023-05-22T04:14:09.805Z,99.90
2023-05-22T04:16:36.559Z,99.90
2023-05-22T04:19:03.622Z,99.90
2023-05-22T04:21:34.104Z,99.90
2023-05-22T04:24:01.724Z,99.90
2023-05-22T04:26:33.193Z,99.90
2023-05-22T04:29:00.322Z,99.90
2023-05-22T04:31:27.113Z,99.90
2023-05-22T04:33:54.653Z,99.90
2023-05-22T04:36:26.135Z,99.90
2023-05-22T04:38:54.086Z,99.90
2023-05-22T04:41:27.886Z,99.90
2023-05-22T04:43:54.832Z,99.90
2023-05-22T04:46:21.763Z,99.90
2023-05-22T04:48:48.710Z,99.90
2023-05-22T04:51:15.945Z,99.90
2023-05-22T04:53:42.776Z,99.90
2023-05-22T04:56:09.527Z,99.90
2023-05-22T04:58:37.887Z,99.90
2023-05-22T05:01:04.827Z,99.90
2023-05-22T05:03:31.690Z,99.90
2023-05-22T05:05:59.490Z,99.90
2023-05-22T05:08:26.297Z,99.90
2023-05-22T05:10:52.997Z,99.90
2023-05-22T05:13:19.723Z,99.90
2023-05-22T05:15:46.436Z,99.90
2023-05-22T05:18:13.228Z,99.90
2023-05-22T05:20:40.133Z,99.90
2023-05-22T05:23:07.070Z,99.90
2023-05-22T05:25:35.967Z,99.90
2023-05-22T05:28:02.702Z,99.90
2023-05-22T05:30:31.658Z,99.90
2023-05-22T05:32:58.486Z,99.90
2023-05-22T05:35:25.426Z,99.90
2023-05-22T05:37:52.242Z,99.90
2023-05-22T05:40:19.026Z,99.90
2023-05-22T05:42:45.753Z,99.90
2023-05-22T05:45:14.077Z,99.90
2023-05-22T05:47:40.965Z,99.90
2023-05-22T05:50:08.043Z,99.90
2023-05-22T05:52:35.042Z,99.90
2023-05-22T05:55:02.304Z,99.90
2023-05-22T05:57:31.228Z,99.90
2023-05-22T05:59:57.977Z,99.90
2023-05-22T06:02:24.880Z,99.90
2023-05-22T06:04:53.791Z,99.90
2023-05-22T06:07:20.993Z,99.90
2023-05-22T06:09:47.759Z,99.90
2023-05-22T06:12:14.651Z,99.90
2023-05-22T06:14:41.421Z,99.90
2023-05-22T06:17:11.187Z,99.90
2023-05-22T06:19:38.187Z,99.90
2023-05-22T06:22:05.213Z,99.90
2023-05-22T06:24:32.571Z,99.90
2023-05-22T06:26:59.689Z,99.90
2023-05-22T06:29:26.847Z,99.90
2023-05-22T06:31:53.631Z,99.90
2023-05-22T06:34:22.402Z,99.90
2023-05-22T06:36:52.082Z,99.90
2023-05-22T06:39:19.195Z,99.90
2023-05-22T06:41:45.920Z,99.90
2023-05-22T06:44:13.023Z,99.90
2023-05-22T06:46:39.907Z,99.90
2023-05-22T06:49:06.892Z,99.90
2023-05-22T06:51:34.200Z,99.90
2023-05-22T06:54:01.146Z,99.90
2023-05-22T06:56:27.885Z,99.90
2023-05-22T06:58:54.721Z,99.90
2023-05-22T07:01:21.694Z,99.90
2023-05-22T07:03:48.565Z,99.90
2023-05-22T07:06:15.519Z,99.90
2023-05-22T07:08:42.344Z,99.90
2023-05-22T07:11:09.253Z,99.90
2023-05-22T07:13:36.562Z,99.90
2023-05-22T07:16:03.347Z,99.90
2023-05-22T07:18:31.494Z,99.90
2023-05-22T07:20:58.879Z,99.90
2023-05-22T07:23:26.478Z,99.90
2023-05-22T07:25:53.340Z,99.90
2023-05-22T07:28:20.270Z,99.90
2023-05-22T07:30:47.064Z,99.90
2023-05-22T07:33:14.149Z,99.90
2023-05-22T07:35:41.043Z,99.90
2023-05-22T07:38:07.888Z,99.90
2023-05-22T07:40:34.676Z,99.90
2023-05-22T07:43:01.453Z,99.90
2023-05-22T07:45:28.149Z,99.90
2023-05-22T07:47:56.356Z,99.90
2023-05-22T07:50:23.235Z,99.90
2023-05-22T07:52:50.033Z,99.90
2023-05-22T07:55:16.853Z,99.90
2023-05-22T07:57:44.336Z,99.90
2023-05-22T08:00:14.526Z,99.90
2023-05-22T08:02:41.912Z,99.90
2023-05-22T08:05:09.883Z,99.90
2023-05-22T08:07:37.261Z,99.90
2023-05-22T08:10:07.748Z,99.90
2023-05-22T08:12:34.574Z,99.90
2023-05-22T08:15:01.415Z,99.90
2023-05-22T08:17:28.304Z,99.90
2023-05-22T08:19:55.162Z,99.90
2023-05-22T08:22:22.198Z,99.90
2023-05-22T08:24:49.024Z,99.90
2023-05-22T08:27:15.847Z,99.90
2023-05-22T08:29:42.635Z,99.90
2023-05-22T08:32:09.427Z,99.90
2023-05-22T08:34:36.403Z,99.90
2023-05-22T08:37:03.306Z,99.90
2023-05-22T08:39:31.268Z,99.90
2023-05-22T08:41:59.353Z,99.90
2023-05-22T08:44:26.150Z,99.90
2023-05-22T08:46:56.634Z,99.90
2023-05-22T08:49:24.484Z,99.90
2023-05-22T08:51:56.873Z,99.90
2023-05-22T08:54:26.930Z,99.90
2023-05-22T08:56:57.199Z,99.90
2023-05-22T08:59:24.746Z,99.90
2023-05-22T09:01:52.800Z,99.90
2023-05-22T09:04:23.696Z,99.90
2023-05-22T09:06:51.656Z,99.90
2023-05-22T09:09:18.733Z,99.20
2023-05-22T09:11:45.872Z,98.00
2023-05-22T09:14:12.740Z,99.10
2023-05-22T09:16:47.178Z,98.70
2023-05-22T09:19:17.484Z,99.10
2023-05-22T09:21:44.639Z,94.40
2023-05-22T09:24:12.074Z,92.20
2023-05-22T09:26:40.034Z,96.50
2023-05-22T09:29:07.599Z,92.90
2023-05-22T09:31:44.665Z,92.60
2023-05-22T09:34:14.727Z,88.30
2023-05-22T09:36:42.477Z,91.50
2023-05-22T09:39:09.650Z,91.60
2023-05-22T09:41:38.703Z,90.90
2023-05-22T09:44:16.057Z,90.60
2023-05-22T09:46:47.077Z,90.20
2023-05-22T09:49:16.559Z,92.60
2023-05-22T09:51:47.771Z,92.60
2023-05-22T09:54:16.164Z,92.90
2023-05-22T09:56:45.734Z,88.30
2023-05-22T09:59:14.457Z,86.80
2023-05-22T10:01:42.758Z,90.00
2023-05-22T10:04:14.308Z,90.90
2023-05-22T10:06:42.989Z,90.50
2023-05-22T10:09:19.626Z,90.70
2023-05-22T10:11:47.526Z,90.20
2023-05-22T10:14:15.842Z,87.40
2023-05-22T10:16:44.924Z,84.90
2023-05-22T10:19:13.538Z,81.40
2023-05-22T10:21:42.103Z,80.40
2023-05-22T10:24:10.021Z,76.20
2023-05-22T10:26:37.660Z,76.30
2023-05-22T10:29:25.554Z,78.00
2023-05-22T10:32:15.061Z,77.10
2023-05-22T10:35:18.760Z,72.00
2023-05-22T10:38:19.361Z,73.20
2023-05-22T10:40:47.008Z,76.30
2023-05-22T10:43:14.194Z,74.20
2023-05-22T10:45:43.098Z,73.20
2023-05-22T10:48:12.592Z,71.90
2023-05-22T10:50:40.178Z,70.90
2023-05-22T10:53:28.001Z,74.80
2023-05-22T10:55:56.710Z,74.40
2023-05-22T10:58:45.021Z,77.00
2023-05-22T11:01:20.506Z,73.80
2023-05-22T11:04:02.091Z,71.00
2023-05-22T11:06:42.081Z,66.60
2023-05-22T11:09:27.578Z,65.10
2023-05-22T11:12:16.565Z,67.40
2023-05-22T11:14:48.940Z,67.40
2023-05-22T11:17:19.698Z,68.80
2023-05-22T11:20:07.143Z,67.60
2023-05-22T11:22:40.739Z,65.70
2023-05-22T11:25:16.657Z,64.90
2023-05-22T11:27:44.434Z,68.40
2023-05-22T11:30:12.712Z,70.30
2023-05-22T11:32:41.373Z,80.90
2023-05-22T11:35:08.686Z,79.00
2023-05-22T11:37:39.993Z,75.00
2023-05-22T11:40:07.693Z,70.50
2023-05-22T11:42:35.570Z,69.70
2023-05-22T11:45:03.053Z,66.00
2023-05-22T11:47:29.982Z,63.70
2023-05-22T11:49:58.132Z,62.40
2023-05-22T11:52:24.946Z,64.70
2023-05-22T11:54:54.764Z,67.10
2023-05-22T11:57:23.028Z,71.00
2023-05-22T11:59:49.840Z,72.10
2023-05-22T12:02:17.918Z,73.50
2023-05-22T12:04:45.153Z,72.90
2023-05-22T12:07:12.123Z,72.20
2023-05-22T12:09:40.632Z,68.20
2023-05-22T12:12:11.558Z,68.30
2023-05-22T12:14:38.732Z,66.30
2023-05-22T12:17:06.488Z,66.70
2023-05-22T12:19:33.647Z,64.60
2023-05-22T12:22:01.060Z,66.50
2023-05-22T12:24:38.791Z,63.10
2023-05-22T12:27:09.707Z,60.90
2023-05-22T12:29:37.823Z,60.70
2023-05-22T12:32:07.525Z,63.10
2023-05-22T12:34:43.000Z,71.20
2023-05-22T12:37:25.935Z,72.30
2023-05-22T12:40:00.528Z,73.10
2023-05-22T12:42:28.382Z,69.80
2023-05-22T12:44:56.808Z,71.60
2023-05-22T12:47:24.785Z,66.30
2023-05-22T12:49:51.851Z,65.50
2023-05-22T12:52:26.830Z,61.30
2023-05-22T12:54:53.608Z,61.10
2023-05-22T12:57:20.408Z,60.80
2023-05-22T12:59:47.174Z,58.80
2023-05-22T13:02:28.346Z,58.90
2023-05-22T13:04:55.289Z,61.10
2023-05-22T13:07:23.272Z,63.70
2023-05-22T13:09:50.154Z,63.50
2023-05-22T13:12:17.004Z,61.40
2023-05-22T13:14:43.771Z,61.50
2023-05-22T13:17:11.054Z,64.30
2023-05-22T13:19:38.306Z,64.90
2023-05-22T13:22:07.411Z,64.90
2023-05-22T13:24:34.356Z,64.20
2023-05-22T13:27:01.767Z,66.80
2023-05-22T13:29:28.554Z,68.50
2023-05-22T13:31:55.274Z,63.00
2023-05-22T13:34:22.177Z,63.80
2023-05-22T13:36:49.101Z,56.80
2023-05-22T13:39:15.930Z,54.00
2023-05-22T13:41:42.835Z,57.30
2023-05-22T13:44:14.672Z,63.20
2023-05-22T13:46:41.432Z,66.00
2023-05-22T13:49:08.163Z,74.00
2023-05-22T13:51:34.953Z,78.30
2023-05-22T13:54:03.064Z,83.00
2023-05-22T13:56:29.921Z,84.30
2023-05-22T13:58:56.993Z,82.70
2023-05-22T14:01:23.907Z,81.30
2023-05-22T14:03:50.810Z,83.90
2023-05-22T14:06:17.641Z,89.00
2023-05-22T14:08:44.444Z,83.30
2023-05-22T14:11:11.200Z,78.20
2023-05-22T14:13:37.914Z,75.40
2023-05-22T14:16:04.867Z,81.50
2023-05-22T14:18:31.687Z,81.70
2023-05-22T14:20:58.427Z,83.60
2023-05-22T14:23:25.313Z,83.00
2023-05-22T14:25:52.077Z,83.40
2023-05-22T14:28:18.868Z,79.40
2023-05-22T14:30:46.003Z,71.60
2023-05-22T14:33:12.743Z,69.40
2023-05-22T14:35:39.714Z,68.10
2023-05-22T14:38:06.665Z,71.80
2023-05-22T14:40:33.410Z,70.60
2023-05-22T14:43:00.169Z,76.00
2023-05-22T14:45:28.998Z,86.70
2023-05-22T14:48:02.977Z,74.70
2023-05-22T14:50:29.829Z,57.20
2023-05-22T14:52:56.536Z,51.40
2023-05-22T14:55:25.302Z,48.90
2023-05-22T14:57:52.037Z,48.80
2023-05-22T15:00:19.943Z,47.60
2023-05-22T15:02:50.852Z,51.10
2023-05-22T15:05:27.877Z,44.30
2023-05-22T15:07:58.436Z,47.30
2023-05-22T15:10:26.181Z,47.40
2023-05-22T15:12:53.575Z,45.60
2023-05-22T15:15:20.654Z,43.70
2023-05-22T15:17:47.489Z,41.80
2023-05-22T15:20:17.621Z,43.80
2023-05-22T15:22:44.435Z,50.00
2023-05-22T15:25:16.706Z,46.90
2023-05-22T15:27:44.250Z,48.70
2023-05-22T15:30:12.383Z,50.00
2023-05-22T15:32:39.790Z,55.30
2023-05-22T15:35:17.106Z,52.10
2023-05-22T15:37:44.396Z,55.00
2023-05-22T15:40:28.433Z,55.00
2023-05-22T15:42:55.754Z,60.90
2023-05-22T15:45:23.205Z,67.40
2023-05-22T15:47:50.321Z,68.40
2023-05-22T15:50:23.196Z,70.10
2023-05-22T15:53:08.426Z,74.40
2023-05-22T15:55:35.766Z,68.30
2023-05-22T15:58:08.104Z,68.50
2023-05-22T16:00:41.298Z,68.40
2023-05-22T16:03:09.129Z,63.30
2023-05-22T16:05:40.402Z,69.00
2023-05-22T16:08:16.303Z,70.30
2023-05-22T16:10:45.396Z,71.60
2023-05-22T16:13:12.599Z,69.70
2023-05-22T16:15:44.662Z,66.50
2023-05-22T16:18:12.877Z,61.90
2023-05-22T16:20:40.473Z,66.40
2023-05-22T16:23:07.422Z,65.20
2023-05-22T16:25:34.182Z,69.10
2023-05-22T16:28:00.912Z,67.80
2023-05-22T16:30:27.773Z,72.90
2023-05-22T16:32:54.506Z,77.80
2023-05-22T16:35:22.100Z,80.50
2023-05-22T16:37:48.843Z,79.20
2023-05-22T16:40:15.854Z,83.40
2023-05-22T16:42:42.912Z,85.50
2023-05-22T16:45:23.124Z,85.40
2023-05-22T16:47:49.954Z,90.20
2023-05-22T16:50:16.822Z,92.30
2023-05-22T16:52:43.552Z,91.80
2023-05-22T16:55:10.599Z,92.50
2023-05-22T16:57:37.324Z,92.00
2023-05-22T17:00:06.728Z,92.30
2023-05-22T17:02:33.959Z,93.40
2023-05-22T17:05:01.108Z,95.30
2023-05-22T17:07:27.881Z,95.70
2023-05-22T17:09:54.602Z,96.10
2023-05-22T17:12:21.290Z,94.70
2023-05-22T17:14:47.983Z,94.10
2023-05-22T17:17:14.776Z,93.00
2023-05-22T17:19:41.561Z,92.10
2023-05-22T17:22:08.860Z,93.80
2023-05-22T17:24:35.590Z,94.00
2023-05-22T17:27:03.478Z,94.80
2023-05-22T17:29:30.205Z,96.00
2023-05-22T17:31:56.937Z,98.90
2023-05-22T17:34:24.287Z,98.70
2023-05-22T17:36:51.066Z,99.00
2023-05-22T17:39:17.778Z,99.10
2023-05-22T17:41:44.461Z,99.60
2023-05-22T17:44:11.222Z,99.90
2023-05-22T17:46:38.981Z,99.90
2023-05-22T17:49:09.850Z,99.90
2023-05-22T17:51:36.568Z,99.90
2023-05-22T17:54:03.992Z,99.90
2023-05-22T17:56:30.711Z,99.90
2023-05-22T17:58:57.470Z,99.90
2023-05-22T18:01:24.553Z,99.90
2023-05-22T18:03:51.535Z,99.90
2023-05-22T18:06:20.622Z,99.90
2023-05-22T18:08:48.690Z,99.90
2023-05-22T18:11:15.738Z,99.90
2023-05-22T18:13:42.442Z,99.90
2023-05-22T18:16:09.275Z,99.90
2023-05-22T18:18:36.119Z,99.90
2023-05-22T18:21:03.113Z,99.90
2023-05-22T18:23:29.835Z,99.90
2023-05-22T18:25:57.342Z,99.90
2023-05-22T18:28:26.614Z,99.90
2023-05-22T18:30:53.779Z,99.90
2023-05-22T18:33:22.779Z,99.90
2023-05-22T18:35:49.533Z,99.90
2023-05-22T18:38:16.555Z,99.90
2023-05-22T18:40:43.483Z,99.90
2023-05-22T18:43:10.235Z,99.90
2023-05-22T18:45:36.982Z,99.90
2023-05-22T18:48:03.978Z,99.90
2023-05-22T18:50:30.923Z,99.90
2023-05-22T18:52:57.646Z,99.90
2023-05-22T18:55:24.644Z,99.90
2023-05-22T18:57:51.386Z,99.90
2023-05-22T19:00:18.226Z,99.90
2023-05-22T19:02:45.074Z,99.90
2023-05-22T19:05:11.984Z,99.90
2023-05-22T19:07:38.769Z,99.90
2023-05-22T19:10:08.027Z,99.90
2023-05-22T19:12:35.152Z,99.90
2023-05-22T19:15:02.014Z,99.90
2023-05-22T19:17:28.784Z,99.90
2023-05-22T19:19:55.716Z,99.90
2023-05-22T19:22:24.179Z,99.90
2023-05-22T19:24:51.211Z,99.90
2023-05-22T19:27:18.028Z,99.90
2023-05-22T19:29:44.775Z,99.90
2023-05-22T19:32:11.501Z,99.90
2023-05-22T19:34:38.802Z,99.90
2023-05-22T19:37:06.543Z,99.90
2023-05-22T19:39:33.339Z,99.90
2023-05-22T19:42:00.277Z,99.90
2023-05-22T19:44:27.001Z,99.90
2023-05-22T19:46:53.858Z,99.90
2023-05-22T19:49:20.692Z,99.90
2023-05-22T19:51:47.455Z,99.90
2023-05-22T19:54:14.186Z,99.90
2023-05-22T19:56:40.992Z,99.90
2023-05-22T19:59:07.772Z,99.90
2023-05-22T20:01:34.512Z,99.90
2023-05-22T20:04:01.315Z,99.90
2023-05-22T20:06:31.512Z,99.90
2023-05-22T20:08:58.336Z,99.90
2023-05-22T20:11:25.106Z,99.90
2023-05-22T20:13:54.517Z,99.90
2023-05-22T20:16:21.376Z,99.90
2023-05-22T20:18:48.863Z,99.90
2023-05-22T20:21:15.703Z,99.90
2023-05-22T20:23:42.507Z,99.90
2023-05-22T20:26:09.284Z,99.90
2023-05-22T20:28:36.106Z,99.90
2023-05-22T20:31:02.870Z,99.90
2023-05-22T20:33:29.628Z,99.90
2023-05-22T20:35:56.487Z,99.90
2023-05-22T20:38:23.197Z,99.90
2023-05-22T20:40:52.052Z,99.90
2023-05-22T20:43:18.941Z,99.90
2023-05-22T20:45:51.887Z,99.90
2023-05-22T20:48:18.582Z,99.90
2023-05-22T20:50:47.232Z,99.90
2023-05-22T20:53:14.007Z,99.90
2023-05-22T20:55:40.887Z,99.90
2023-05-22T20:58:09.186Z,99.90
2023-05-22T21:00:35.990Z,99.90
2023-05-22T21:03:02.829Z,99.90
2023-05-22T21:05:29.637Z,99.90
2023-05-22T21:07:57.855Z,99.90
2023-05-22T21:10:24.620Z,99.90
2023-05-22T21:12:51.340Z,99.90
2023-05-22T21:15:18.129Z,99.90
2023-05-22T21:17:55.138Z,99.90
2023-05-22T21:20:21.867Z,99.90
2023-05-22T21:22:48.704Z,99.90
2023-05-22T21:25:15.665Z,99.90
2023-05-22T21:27:42.452Z,99.90
2023-05-22T21:30:13.059Z,99.90
2023-05-22T21:32:39.829Z,99.90
2023-05-22T21:35:08.200Z,99.90
2023-05-22T21:37:35.062Z,99.90
2023-05-22T21:40:02.290Z,99.90
2023-05-22T21:42:41.878Z,99.90
2023-05-22T21:45:13.102Z,99.90
2023-05-22T21:47:39.919Z,99.90
2023-05-22T21:50:07.141Z,99.90
2023-05-22T21:52:59.207Z,99.90
2023-05-22T21:55:36.317Z,99.90
2023-05-22T22:02:00.133Z,99.90
2023-05-22T22:15:52.287Z,99.90
2023-05-22T22:19:01.853Z,99.90
2023-05-22T22:21:28.696Z,99.90
2023-05-22T22:24:05.312Z,99.90
2023-05-22T22:26:33.326Z,99.90
2023-05-22T22:32:13.775Z,99.90
2023-05-22T22:34:49.957Z,99.90
2023-05-22T22:37:34.874Z,99.90
2023-05-22T22:43:27.577Z,99.90
2023-05-22T22:45:57.665Z,99.90
2023-05-22T22:48:33.464Z,99.90
2023-05-22T22:51:00.607Z,99.90
2023-05-22T22:53:27.560Z,99.90
2023-05-22T22:56:03.489Z,99.90
2023-05-22T22:58:33.272Z,99.90
2023-05-22T23:01:00.612Z,99.90
2023-05-22T23:03:27.718Z,99.90
2023-05-22T23:05:54.860Z,99.90
2023-05-22T23:08:24.134Z,99.90
2023-05-22T23:10:51.082Z,99.90
2023-05-22T23:13:21.108Z,99.90
2023-05-22T23:15:48.444Z,99.90
2023-05-22T23:18:15.492Z,99.90
2023-05-22T23:20:45.239Z,99.90
2023-05-22T23:23:12.262Z,99.90
2023-05-22T23:25:39.562Z,99.90
2023-05-22T23:28:07.423Z,99.90
2023-05-22T23:30:34.220Z,99.90
2023-05-22T23:33:02.634Z,99.90
2023-05-22T23:35:29.477Z,99.90
2023-05-22T23:37:56.385Z,99.90
2023-05-22T23:40:23.295Z,99.90
2023-05-22T23:42:50.982Z,99.90
2023-05-22T23:45:20.919Z,99.90
2023-05-22T23:47:50.623Z,99.90
2023-05-22T23:50:17.690Z,99.90
2023-05-22T23:52:44.922Z,99.90
2023-05-22T23:55:11.948Z,99.90
2023-05-22T23:57:38.799Z,99.90
